Time,TemperatureF,DewpointF,PressureIn,WindDirection,WindDirectionDegrees,WindSpeedMPH,WindSpeedGustMPH,Humidity,HourlyPrecipIn,Conditions,Clouds,dailyrainin,SoftwareType,DateUTC
2013-06-03 00:03:00,51.1,23.7,29.88,NNW,338,0.0,0.0,34,0.00,,CLR,0.00,VWS V14.01,2013-06-03 05:03:00,
2013-06-03 00:08:00,51.1,23.7,29.88,NNW,338,0.0,0.0,34,0.00,,CLR,0.00,VWS V14.01,2013-06-03 05:08:00,
2013-06-03 00:14:00,51.1,24.4,29.88,NNW,338,0.0,0.0,35,0.00,,CLR,0.00,VWS V14.01,2013-06-03 05:14:00,
2013-06-03 00:19:00,50.7,24.1,29.88,NNW,338,0.0,0.0,35,0.00,,CLR,0.00,VWS V14.01,2013-06-03 05:19:00,
2013-06-03 00:24:00,50.4,24.4,29.88,NNW,338,0.0,0.0,36,0.00,,CLR,0.00,VWS V14.01,2013-06-03 05:24:00,
2013-06-03 00:29:00,50.2,24.3,29.88,NNW,338,0.0,0.0,36,0.00,,CLR,0.00,VWS V14.01,2013-06-03 05:29:00,
2013-06-03 00:34:00,50.0,24.1,29.88,NNW,338,0.0,0.0,36,0.00,,CLR,0.00,VWS V14.01,2013-06-03 05:34:00,
2013-06-03 00:39:00,49.8,24.6,29.88,NNW,338,0.0,0.0,37,0.00,,CLR,0.00,VWS V14.01,2013-06-03 05:39:00,
2013-06-03 00:45:00,49.5,24.3,29.88,NNW,338,0.0,0.0,37,0.00,,CLR,0.00,VWS V14.01,2013-06-03 05:45:00,
2013-06-03 00:50:00,49.3,24.1,29.88,NNW,338,0.0,0.0,37,0.00,,CLR,0.00,VWS V14.01,2013-06-03 05:50:00,
2013-06-03 00:55:00,49.1,24.6,29.88,NNW,338,0.0,0.0,38,0.00,,CLR,0.00,VWS V14.01,2013-06-03 05:55:00,
2013-06-03 01:01:00,48.7,24.3,29.88,NNW,338,0.0,0.0,38,0.00,,CLR,0.00,VWS V14.01,2013-06-03 06:01:00,
2013-06-03 01:06:00,48.6,24.1,29.88,NNW,338,0.0,0.0,38,0.00,,CLR,0.00,VWS V14.01,2013-06-03 06:06:00,
2013-06-03 01:11:00,48.6,24.1,29.88,NNW,338,0.0,0.0,38,0.00,,CLR,0.00,VWS V14.01,2013-06-03 06:11:00,
2013-06-03 01:16:00,48.7,24.9,29.88,NNW,338,0.0,0.0,39,0.00,,CLR,0.00,VWS V14.01,2013-06-03 06:16:00,
2013-06-03 01:22:00,48.6,24.7,29.88,NNW,338,0.0,0.0,39,0.00,,CLR,0.00,VWS V14.01,2013-06-03 06:22:00,
2013-06-03 01:27:00,48.4,24.6,29.88,NNW,338,0.0,0.0,39,0.00,,CLR,0.00,VWS V14.01,2013-06-03 06:27:00,
2013-06-03 01:32:00,48.4,24.6,29.88,NNW,338,0.0,0.0,39,0.00,,CLR,0.00,VWS V14.01,2013-06-03 06:32:00,
2013-06-03 01:38:00,48.4,25.2,29.88,NNW,338,0.0,0.0,40,0.00,,CLR,0.00,VWS V14.01,2013-06-03 06:38:00,
2013-06-03 01:43:00,48.2,25.0,29.88,NNW,338,0.0,0.0,40,0.00,,CLR,0.00,VWS V14.01,2013-06-03 06:43:00,
2013-06-03 01:49:00,48.2,25.0,29.88,NNW,338,0.0,0.0,40,0.00,,CLR,0.00,VWS V14.01,2013-06-03 06:49:00,
2013-06-03 01:54:00,48.0,25.5,29.88,NNW,338,0.0,0.0,41,0.00,,CLR,0.00,VWS V14.01,2013-06-03 06:54:00,
2013-06-03 02:00:00,47.7,25.1,29.91,NNW,338,0.0,0.0,41,0.00,,CLR,0.00,VWS V14.01,2013-06-03 07:00:00,
2013-06-03 02:06:00,47.3,24.8,29.91,NNW,338,0.0,0.0,41,0.00,,CLR,0.00,VWS V14.01,2013-06-03 07:06:00,
2013-06-03 02:11:00,47.3,24.8,29.91,NNW,338,0.0,0.0,41,0.00,,CLR,0.00,VWS V14.01,2013-06-03 07:11:00,
2013-06-03 02:17:00,47.3,25.4,29.91,NNW,338,0.0,0.0,42,0.00,,CLR,0.00,VWS V14.01,2013-06-03 07:17:00,
2013-06-03 02:22:00,47.5,26.1,29.91,NNW,338,0.0,0.0,43,0.00,,CLR,0.00,VWS V14.01,2013-06-03 07:22:00,
2013-06-03 02:27:00,47.7,26.3,29.91,NNW,338,0.0,0.0,43,0.00,,CLR,0.00,VWS V14.01,2013-06-03 07:27:00,
2013-06-03 02:32:00,47.7,26.3,29.91,NNW,338,0.0,0.0,43,0.00,,CLR,0.00,VWS V14.01,2013-06-03 07:32:00,
2013-06-03 02:38:00,47.3,26.5,29.91,NNW,338,0.0,0.0,44,0.00,,CLR,0.00,VWS V14.01,2013-06-03 07:38:00,
2013-06-03 02:43:00,47.1,26.3,29.91,NNW,338,0.0,0.0,44,0.00,,CLR,0.00,VWS V14.01,2013-06-03 07:43:00,
2013-06-03 02:48:00,47.1,26.9,29.91,NNW,338,0.0,0.0,45,0.00,,CLR,0.00,VWS V14.01,2013-06-03 07:48:00,
2013-06-03 02:53:00,47.3,27.6,29.91,NNW,338,0.0,0.0,46,0.00,,CLR,0.00,VWS V14.01,2013-06-03 07:53:00,
2013-06-03 02:58:00,47.3,27.6,29.91,NNW,338,0.0,0.0,46,0.00,,CLR,0.00,VWS V14.01,2013-06-03 07:58:00,
2013-06-03 03:03:00,47.5,27.8,29.91,NNW,338,0.0,0.0,46,0.00,,CLR,0.00,VWS V14.01,2013-06-03 08:03:00,
2013-06-03 03:09:00,47.5,27.8,29.91,NNW,338,0.0,0.0,46,0.00,,CLR,0.00,VWS V14.01,2013-06-03 08:09:00,
2013-06-03 03:14:00,47.7,27.9,29.91,NNW,338,0.0,0.0,46,0.00,,CLR,0.00,VWS V14.01,2013-06-03 08:14:00,
2013-06-03 03:20:00,47.7,27.9,29.91,NNW,337,0.0,0.0,46,0.00,,CLR,0.00,VWS V14.01,2013-06-03 08:20:00,
2013-06-03 03:25:00,47.8,28.1,29.91,NNW,337,0.0,0.0,46,0.00,,CLR,0.00,VWS V14.01,2013-06-03 08:25:00,
2013-06-03 03:30:00,47.7,27.4,29.91,NNW,337,0.0,0.0,45,0.00,,CLR,0.00,VWS V14.01,2013-06-03 08:30:00,
2013-06-03 03:35:00,47.7,27.4,29.91,NNW,337,0.0,0.0,45,0.00,,CLR,0.00,VWS V14.01,2013-06-03 08:35:00,
2013-06-03 03:41:00,47.7,26.8,29.91,NNW,337,0.0,0.0,44,0.00,,CLR,0.00,VWS V14.01,2013-06-03 08:41:00,
2013-06-03 03:47:00,47.3,26.5,29.91,NNW,337,0.0,0.0,44,0.00,,CLR,0.00,VWS V14.01,2013-06-03 08:47:00,
2013-06-03 03:52:00,46.9,26.2,29.91,NNW,337,0.0,0.0,44,0.00,,CLR,0.00,VWS V14.01,2013-06-03 08:52:00,
2013-06-03 03:58:00,46.8,26.0,29.91,NNW,337,0.0,0.0,44,0.00,,CLR,0.00,VWS V14.01,2013-06-03 08:58:00,
2013-06-03 04:03:00,46.4,25.7,29.91,NNW,337,0.0,0.0,44,0.00,,CLR,0.00,VWS V14.01,2013-06-03 09:03:00,
2013-06-03 04:09:00,46.2,25.5,29.91,NNW,336,0.0,0.0,44,0.00,,CLR,0.00,VWS V14.01,2013-06-03 09:09:00,
2013-06-03 04:14:00,46.0,25.9,29.91,NNW,336,0.0,0.0,45,0.00,,CLR,0.00,VWS V14.01,2013-06-03 09:14:00,
2013-06-03 04:20:00,46.2,26.1,29.91,NNW,336,0.0,0.0,45,0.00,,CLR,0.00,VWS V14.01,2013-06-03 09:20:00,
2013-06-03 04:25:00,46.4,26.8,29.91,NNW,336,0.0,0.0,46,0.00,,CLR,0.00,VWS V14.01,2013-06-03 09:25:00,
2013-06-03 04:30:00,46.6,26.9,29.91,NNW,336,0.0,0.0,46,0.00,,CLR,0.00,VWS V14.01,2013-06-03 09:30:00,
2013-06-03 04:35:00,46.8,27.6,29.91,NNW,336,0.0,0.0,47,0.00,,CLR,0.00,VWS V14.01,2013-06-03 09:35:00,
2013-06-03 04:40:00,46.9,27.3,29.91,NNW,336,0.0,0.0,46,0.00,,CLR,0.00,VWS V14.01,2013-06-03 09:40:00,
2013-06-03 04:45:00,46.8,27.1,29.91,NNW,336,0.0,0.0,46,0.00,,CLR,0.00,VWS V14.01,2013-06-03 09:45:00,
2013-06-03 04:51:00,46.4,26.8,29.91,NNW,336,0.0,0.0,46,0.00,,CLR,0.00,VWS V14.01,2013-06-03 09:51:00,
2013-06-03 04:57:00,45.9,26.3,29.91,NNW,336,0.0,0.0,46,0.00,,CLR,0.00,VWS V14.01,2013-06-03 09:57:00,
2013-06-03 05:02:00,45.5,26.5,29.91,NNW,336,0.0,0.0,47,0.00,,CLR,0.00,VWS V14.01,2013-06-03 10:02:00,
2013-06-03 05:08:00,45.7,27.1,29.91,NNW,336,0.0,0.0,48,0.00,,CLR,0.00,VWS V14.01,2013-06-03 10:08:00,
2013-06-03 05:13:00,45.9,27.3,29.91,NNW,336,0.0,0.0,48,0.00,,CLR,0.00,VWS V14.01,2013-06-03 10:13:00,
2013-06-03 05:18:00,45.9,27.3,29.91,NNW,336,0.0,0.0,48,0.00,,CLR,0.00,VWS V14.01,2013-06-03 10:18:00,
2013-06-03 05:23:00,45.7,27.1,29.91,NNW,336,0.0,0.0,48,0.00,,CLR,0.00,VWS V14.01,2013-06-03 10:23:00,
2013-06-03 05:29:00,45.9,27.3,29.91,NNW,336,0.0,0.0,48,0.00,,CLR,0.00,VWS V14.01,2013-06-03 10:29:00,
2013-06-03 05:34:00,46.0,27.5,29.91,NNW,336,0.0,0.0,48,0.00,,CLR,0.00,VWS V14.01,2013-06-03 10:34:00,
2013-06-03 05:40:00,45.9,27.3,29.91,NNW,336,0.0,0.0,48,0.00,,CLR,0.00,VWS V14.01,2013-06-03 10:40:00,
2013-06-03 05:45:00,45.5,27.0,29.91,NNW,336,0.0,0.0,48,0.00,,CLR,0.00,VWS V14.01,2013-06-03 10:45:00,
2013-06-03 05:51:00,45.7,27.6,29.91,NNW,336,0.0,0.0,49,0.00,,CLR,0.00,VWS V14.01,2013-06-03 10:51:00,
2013-06-03 05:56:00,46.0,28.0,29.91,NNW,336,0.0,0.0,49,0.00,,CLR,0.00,VWS V14.01,2013-06-03 10:56:00,
2013-06-03 06:01:00,46.2,28.1,29.91,NNW,336,0.0,0.0,49,0.00,,CLR,0.00,VWS V14.01,2013-06-03 11:01:00,
2013-06-03 06:07:00,46.4,28.3,29.91,NNW,336,0.0,0.0,49,0.00,,CLR,0.00,VWS V14.01,2013-06-03 11:07:00,
2013-06-03 06:13:00,46.6,28.5,29.91,NNW,336,0.0,0.0,49,0.00,,CLR,0.00,VWS V14.01,2013-06-03 11:13:00,
2013-06-03 06:19:00,46.9,28.8,29.91,NNW,336,0.0,0.0,49,0.00,,CLR,0.00,VWS V14.01,2013-06-03 11:19:00,
2013-06-03 06:24:00,47.3,29.1,29.91,NNW,337,0.0,0.0,49,0.00,,CLR,0.00,VWS V14.01,2013-06-03 11:24:00,
2013-06-03 06:30:00,47.7,29.5,29.93,NNW,336,0.0,0.0,49,0.00,,CLR,0.00,VWS V14.01,2013-06-03 11:30:00,
2013-06-03 06:36:00,48.2,30.0,29.93,NW,325,0.0,0.0,49,0.00,,CLR,0.00,VWS V14.01,2013-06-03 11:36:00,
2013-06-03 06:41:00,48.6,30.3,29.93,NW,311,0.0,0.0,49,0.00,,CLR,0.00,VWS V14.01,2013-06-03 11:41:00,
2013-06-03 06:46:00,48.7,29.9,29.93,NW,308,0.0,0.0,48,0.00,,CLR,0.00,VWS V14.01,2013-06-03 11:46:00,
2013-06-03 06:51:00,49.1,29.8,29.93,WNW,293,0.0,0.0,47,0.00,,CLR,0.00,VWS V14.01,2013-06-03 11:51:00,
2013-06-03 06:56:00,49.6,29.2,29.93,West,280,0.0,0.0,45,0.00,,CLR,0.00,VWS V14.01,2013-06-03 11:56:00,
2013-06-03 07:02:00,50.0,29.0,29.93,WSW,252,0.0,0.0,44,0.00,,CLR,0.00,VWS V14.01,2013-06-03 12:02:00,
2013-06-03 07:07:00,50.4,28.2,29.93,WSW,243,0.0,0.0,42,0.00,,CLR,0.00,VWS V14.01,2013-06-03 12:07:00,
2013-06-03 07:12:00,50.7,27.3,29.93,WSW,243,0.0,0.0,40,0.00,,CLR,0.00,VWS V14.01,2013-06-03 12:12:00,
2013-06-03 07:17:00,51.1,27.6,29.93,SSW,205,0.0,3.6,40,0.00,,CLR,0.00,VWS V14.01,2013-06-03 12:17:00,
2013-06-03 07:22:00,51.3,27.2,29.93,SSW,206,2.7,2.7,39,0.00,,CLR,0.00,VWS V14.01,2013-06-03 12:22:00,
2013-06-03 07:28:00,51.6,26.9,29.93,SW,217,3.6,4.5,38,0.00,,CLR,0.00,VWS V14.01,2013-06-03 12:28:00,
2013-06-03 07:33:00,52.0,26.5,29.93,SSW,211,2.2,5.8,37,0.00,,CLR,0.00,VWS V14.01,2013-06-03 12:33:00,
2013-06-03 07:38:00,52.2,27.3,29.93,SW,232,0.0,0.0,38,0.00,,CLR,0.00,VWS V14.01,2013-06-03 12:38:00,
2013-06-03 07:43:00,52.5,27.7,29.93,SSW,201,0.0,0.0,38,0.00,,CLR,0.00,VWS V14.01,2013-06-03 12:43:00,
2013-06-03 07:48:00,52.7,27.2,29.93,SSW,206,4.9,5.8,37,0.00,,CLR,0.00,VWS V14.01,2013-06-03 12:48:00,
2013-06-03 07:54:00,53.1,27.5,29.93,SW,216,0.0,0.0,37,0.00,,CLR,0.00,VWS V14.01,2013-06-03 12:54:00,
2013-06-03 08:00:00,53.2,27.7,29.93,WSW,254,4.0,4.0,37,0.00,,CLR,0.00,VWS V14.01,2013-06-03 13:00:00,
2013-06-03 08:05:00,53.8,28.1,29.93,WNW,302,0.0,0.0,37,0.00,,CLR,0.00,VWS V14.01,2013-06-03 13:05:00,
2013-06-03 08:11:00,54.1,27.8,29.93,SSW,212,5.4,5.4,36,0.00,,CLR,0.00,VWS V14.01,2013-06-03 13:11:00,
2013-06-03 08:17:00,54.5,28.1,29.93,SSW,208,0.0,0.0,36,0.00,,CLR,0.00,VWS V14.01,2013-06-03 13:17:00,
2013-06-03 08:22:00,54.7,27.6,29.93,SSW,207,3.6,5.4,35,0.00,,CLR,0.00,VWS V14.01,2013-06-03 13:22:00,
2013-06-03 08:27:00,55.2,28.1,29.93,WNW,284,0.0,0.0,35,0.00,,CLR,0.00,VWS V14.01,2013-06-03 13:27:00,
2013-06-03 08:33:00,55.6,26.2,29.93,SW,232,5.8,5.8,32,0.00,,CLR,0.00,VWS V14.01,2013-06-03 13:33:00,
2013-06-03 08:38:00,55.8,27.1,29.93,SW,225,3.1,4.0,33,0.00,,CLR,0.00,VWS V14.01,2013-06-03 13:38:00,
2013-06-03 08:43:00,56.1,26.7,29.93,WSW,257,3.6,3.6,32,0.00,,CLR,0.00,VWS V14.01,2013-06-03 13:43:00,
2013-06-03 08:48:00,56.5,26.2,29.93,WSW,251,5.4,5.4,31,0.00,,CLR,0.00,VWS V14.01,2013-06-03 13:48:00,
2013-06-03 08:54:00,56.7,25.6,29.93,WSW,243,5.8,5.8,30,0.00,,CLR,0.00,VWS V14.01,2013-06-03 13:54:00,
2013-06-03 09:00:00,57.2,25.2,29.93,SW,220,3.6,3.6,29,0.00,,CLR,0.00,VWS V14.01,2013-06-03 14:00:00,
2013-06-03 09:05:00,57.6,26.4,29.93,SW,231,3.1,3.6,30,0.00,,CLR,0.00,VWS V14.01,2013-06-03 14:05:00,
2013-06-03 09:11:00,57.9,25.9,29.93,SW,216,3.6,3.6,29,0.00,,CLR,0.00,VWS V14.01,2013-06-03 14:11:00,
2013-06-03 09:17:00,58.3,25.3,29.93,SW,230,3.1,3.1,28,0.00,,CLR,0.00,VWS V14.01,2013-06-03 14:17:00,
2013-06-03 09:22:00,58.5,24.6,29.93,WSW,253,5.4,6.3,27,0.00,,CLR,0.00,VWS V14.01,2013-06-03 14:22:00,
2013-06-03 09:28:00,58.8,25.8,29.93,SW,216,2.2,3.6,28,0.00,,CLR,0.00,VWS V14.01,2013-06-03 14:28:00,
2013-06-03 09:34:00,59.2,25.2,29.93,SW,224,0.0,0.0,27,0.00,,CLR,0.00,VWS V14.01,2013-06-03 14:34:00,
2013-06-03 09:39:00,59.4,24.5,29.93,SSW,203,2.7,5.4,26,0.00,,CLR,0.00,VWS V14.01,2013-06-03 14:39:00,
2013-06-03 09:44:00,59.4,23.6,29.93,SW,227,2.7,5.8,25,0.00,,CLR,0.00,VWS V14.01,2013-06-03 14:44:00,
2013-06-03 09:50:00,59.7,23.9,29.93,SSW,212,6.3,6.3,25,0.00,,CLR,0.00,VWS V14.01,2013-06-03 14:50:00,
2013-06-03 09:55:00,59.9,24.0,29.93,WSW,244,6.3,8.3,25,0.00,,CLR,0.00,VWS V14.01,2013-06-03 14:55:00,
2013-06-03 10:00:00,60.1,24.2,29.93,SSW,207,3.1,4.0,25,0.00,,CLR,0.00,VWS V14.01,2013-06-03 15:00:00,
2013-06-03 10:06:00,60.3,24.3,29.93,SW,235,4.9,6.3,25,0.00,,CLR,0.00,VWS V14.01,2013-06-03 15:06:00,
2013-06-03 10:11:00,60.3,24.3,29.93,SW,224,6.3,6.3,25,0.00,,CLR,0.00,VWS V14.01,2013-06-03 15:11:00,
2013-06-03 10:17:00,60.6,24.6,29.93,SSW,192,3.6,5.4,25,0.00,,CLR,0.00,VWS V14.01,2013-06-03 15:17:00,
2013-06-03 10:22:00,60.8,23.8,29.93,SW,228,5.8,6.3,24,0.00,,CLR,0.00,VWS V14.01,2013-06-03 15:22:00,
2013-06-03 10:28:00,60.8,23.8,29.93,SW,223,7.6,7.6,24,0.00,,CLR,0.00,VWS V14.01,2013-06-03 15:28:00,
2013-06-03 10:33:00,61.3,24.3,29.93,South,172,2.7,5.4,24,0.00,,CLR,0.00,VWS V14.01,2013-06-03 15:33:00,
2013-06-03 10:38:00,61.3,24.3,29.93,SSW,200,3.6,5.8,24,0.00,,CLR,0.00,VWS V14.01,2013-06-03 15:38:00,
2013-06-03 10:44:00,61.5,24.4,29.93,WSW,246,5.4,8.7,24,0.00,,CLR,0.00,VWS V14.01,2013-06-03 15:44:00,
2013-06-03 10:49:00,61.7,24.6,29.93,SSW,212,3.6,4.9,24,0.00,,CLR,0.00,VWS V14.01,2013-06-03 15:49:00,
2013-06-03 10:55:00,61.9,24.7,29.93,WSW,241,3.1,4.9,24,0.00,,CLR,0.00,VWS V14.01,2013-06-03 15:55:00,
2013-06-03 11:00:00,62.2,25.0,29.93,SW,216,3.6,3.6,24,0.00,,CLR,0.00,VWS V14.01,2013-06-03 16:00:00,
2013-06-03 11:05:00,62.2,25.0,29.93,SW,222,6.3,6.3,24,0.00,,CLR,0.00,VWS V14.01,2013-06-03 16:05:00,
2013-06-03 11:10:00,62.2,25.0,29.93,West,265,2.7,6.3,24,0.00,,CLR,0.00,VWS V14.01,2013-06-03 16:10:00,
2013-06-03 11:16:00,62.6,25.3,29.93,NNE,13,2.2,4.0,24,0.00,,CLR,0.00,VWS V14.01,2013-06-03 16:16:00,
2013-06-03 11:21:00,63.0,25.6,29.93,WSW,244,5.8,5.8,24,0.00,,CLR,0.00,VWS V14.01,2013-06-03 16:21:00,
2013-06-03 11:26:00,63.1,25.8,29.93,SE,130,2.2,4.0,24,0.00,,CLR,0.00,VWS V14.01,2013-06-03 16:26:00,
2013-06-03 11:31:00,63.5,25.1,29.93,WSW,255,5.8,8.3,23,0.00,,CLR,0.00,VWS V14.01,2013-06-03 16:31:00,
2013-06-03 11:37:00,63.5,25.1,29.93,WNW,300,3.6,4.0,23,0.00,,CLR,0.00,VWS V14.01,2013-06-03 16:37:00,
2013-06-03 11:42:00,63.7,26.2,29.93,North,357,4.0,5.4,24,0.00,,CLR,0.00,VWS V14.01,2013-06-03 16:42:00,
2013-06-03 11:47:00,63.5,25.1,29.93,NNW,336,2.7,5.4,23,0.00,,CLR,0.00,VWS V14.01,2013-06-03 16:47:00,
2013-06-03 11:52:00,63.9,25.4,29.93,SSE,166,0.0,2.2,23,0.00,,CLR,0.00,VWS V14.01,2013-06-03 16:52:00,
2013-06-03 11:57:00,64.2,25.7,29.93,NW,320,4.5,5.4,23,0.00,,CLR,0.00,VWS V14.01,2013-06-03 16:57:00,
2013-06-03 12:02:00,64.0,25.5,29.93,North,350,5.4,5.8,23,0.00,,CLR,0.00,VWS V14.01,2013-06-03 17:02:00,
2013-06-03 12:07:00,63.9,25.4,29.93,SSW,206,4.0,6.3,23,0.00,,CLR,0.00,VWS V14.01,2013-06-03 17:07:00,
2013-06-03 12:13:00,64.2,25.7,29.93,North,3,3.6,3.6,23,0.00,,CLR,0.00,VWS V14.01,2013-06-03 17:13:00,
2013-06-03 12:18:00,64.9,26.3,29.93,SW,221,5.4,5.4,23,0.00,,CLR,0.00,VWS V14.01,2013-06-03 17:18:00,
2013-06-03 12:23:00,65.3,26.6,29.93,SW,226,3.1,5.8,23,0.00,,CLR,0.00,VWS V14.01,2013-06-03 17:23:00,
2013-06-03 12:28:00,65.3,23.2,29.93,SSW,192,4.9,4.9,20,0.00,,CLR,0.00,VWS V14.01,2013-06-03 17:28:00,
2013-06-03 12:34:00,65.5,26.7,29.93,SSE,167,4.0,4.0,23,0.00,,CLR,0.00,VWS V14.01,2013-06-03 17:34:00,
2013-06-03 12:40:00,65.3,26.6,29.93,West,266,5.4,5.4,23,0.00,,CLR,0.00,VWS V14.01,2013-06-03 17:40:00,
2013-06-03 12:45:00,65.5,26.7,29.93,NW,326,3.6,3.6,23,0.00,,CLR,0.00,VWS V14.01,2013-06-03 17:45:00,
2013-06-03 12:50:00,65.7,23.5,29.93,WNW,284,3.1,5.8,20,0.00,,CLR,0.00,VWS V14.01,2013-06-03 17:50:00,
2013-06-03 12:55:00,65.8,23.7,29.93,NE,52,0.0,3.6,20,0.00,,CLR,0.00,VWS V14.01,2013-06-03 17:55:00,
2013-06-03 13:01:00,66.0,27.2,29.93,SW,227,0.0,0.0,23,0.00,,CLR,0.00,VWS V14.01,2013-06-03 18:01:00,
2013-06-03 13:06:00,66.0,23.8,29.93,South,184,4.0,4.0,20,0.00,,CLR,0.00,VWS V14.01,2013-06-03 18:06:00,
2013-06-03 13:12:00,66.4,26.4,29.93,SW,222,0.0,5.8,22,0.00,,CLR,0.00,VWS V14.01,2013-06-03 18:12:00,
2013-06-03 13:18:00,66.4,26.4,29.91,North,353,5.4,7.6,22,0.00,,CLR,0.00,VWS V14.01,2013-06-03 18:18:00,
2013-06-03 13:24:00,65.7,23.5,29.91,SW,235,3.1,5.8,20,0.00,,CLR,0.00,VWS V14.01,2013-06-03 18:24:00,
2013-06-03 13:30:00,65.8,27.0,29.91,SW,215,3.1,5.4,23,0.00,,CLR,0.00,VWS V14.01,2013-06-03 18:30:00,
2013-06-03 13:37:00,66.6,24.3,29.91,WSW,257,4.0,4.0,20,0.00,,CLR,0.00,VWS V14.01,2013-06-03 18:37:00,
2013-06-03 13:43:00,66.9,24.6,29.91,West,265,3.1,5.8,20,0.00,,CLR,0.00,VWS V14.01,2013-06-03 18:43:00,
2013-06-03 13:48:00,67.1,24.7,29.91,NNE,12,6.3,6.3,20,0.00,,CLR,0.00,VWS V14.01,2013-06-03 18:48:00,
2013-06-03 13:53:00,67.1,24.7,29.91,NNE,19,4.0,5.4,20,0.00,,CLR,0.00,VWS V14.01,2013-06-03 18:53:00,
2013-06-03 13:59:00,67.3,24.9,29.91,WSW,244,5.4,6.3,20,0.00,,CLR,0.00,VWS V14.01,2013-06-03 18:59:00,
2013-06-03 14:04:00,67.1,24.7,29.91,SW,236,2.7,5.8,20,0.00,,SCT055,0.00,VWS V14.01,2013-06-03 19:04:00,
2013-06-03 14:10:00,67.3,24.9,29.91,WNW,292,2.7,5.4,20,0.00,,SCT055,0.00,VWS V14.01,2013-06-03 19:10:00,
2013-06-03 14:15:00,67.3,24.9,29.91,SW,216,5.8,8.7,20,0.00,,SCT055,0.00,VWS V14.01,2013-06-03 19:15:00,
2013-06-03 14:22:00,66.6,24.3,29.91,West,264,4.9,5.8,20,0.00,,SCT055,0.00,VWS V14.01,2013-06-03 19:22:00,
2013-06-03 14:27:00,66.9,24.6,29.91,NNW,333,0.0,4.0,20,0.00,,SCT055,0.00,VWS V14.01,2013-06-03 19:27:00,
2013-06-03 14:32:00,67.5,25.0,29.91,NNW,327,2.2,3.6,20,0.00,,SCT055,0.00,VWS V14.01,2013-06-03 19:32:00,
2013-06-03 14:37:00,68.0,25.5,29.91,WSW,251,5.8,5.8,20,0.00,,SCT055,0.00,VWS V14.01,2013-06-03 19:37:00,
2013-06-03 14:43:00,68.5,25.9,29.91,SW,218,4.0,6.3,20,0.00,,SCT055,0.00,VWS V14.01,2013-06-03 19:43:00,
2013-06-03 14:49:00,68.5,25.9,29.91,SSW,199,3.6,4.0,20,0.00,,SCT055,0.00,VWS V14.01,2013-06-03 19:49:00,
2013-06-03 14:54:00,68.4,25.8,29.91,SSE,158,3.1,3.1,20,0.00,,SCT055,0.00,VWS V14.01,2013-06-03 19:54:00,
2013-06-03 14:59:00,69.1,26.4,29.91,NW,325,2.7,4.0,20,0.00,,SCT055,0.00,VWS V14.01,2013-06-03 19:59:00,
2013-06-03 15:04:00,69.6,26.8,29.88,NNE,12,3.6,5.4,20,0.00,,FEW060,0.00,VWS V14.01,2013-06-03 20:04:00,
2013-06-03 15:09:00,69.8,25.7,29.88,NW,313,4.9,5.8,19,0.00,,FEW060,0.00,VWS V14.01,2013-06-03 20:09:00,
2013-06-03 15:15:00,69.1,26.4,29.88,North,357,0.0,0.0,20,0.00,,FEW060,0.00,VWS V14.01,2013-06-03 20:15:00,
2013-06-03 15:22:00,70.2,26.0,29.88,NNE,12,3.6,4.0,19,0.00,,FEW060,0.00,VWS V14.01,2013-06-03 20:22:00,
2013-06-03 15:28:00,70.7,26.5,29.88,NNW,338,6.3,7.6,19,0.00,,FEW060,0.00,VWS V14.01,2013-06-03 20:28:00,
2013-06-03 15:34:00,70.0,25.9,29.88,North,2,2.7,3.6,19,0.00,,FEW060,0.00,VWS V14.01,2013-06-03 20:34:00,
2013-06-03 15:39:00,70.2,26.0,29.88,West,267,0.0,5.4,19,0.00,,FEW060,0.00,VWS V14.01,2013-06-03 20:39:00,
2013-06-03 15:44:00,70.5,26.3,29.88,SW,218,3.6,8.1,19,0.00,,FEW060,0.00,VWS V14.01,2013-06-03 20:44:00,
2013-06-03 15:49:00,70.2,26.0,29.88,South,174,5.4,6.7,19,0.00,,FEW060,0.00,VWS V14.01,2013-06-03 20:49:00,
2013-06-03 15:55:00,71.1,26.8,29.88,SSW,213,8.7,8.7,19,0.00,,FEW060,0.00,VWS V14.01,2013-06-03 20:55:00,
2013-06-03 16:00:00,70.7,26.5,29.88,SSW,194,3.6,5.4,19,0.00,,FEW060,0.00,VWS V14.01,2013-06-03 21:00:00,
2013-06-03 16:06:00,70.9,26.6,29.88,WNW,292,5.8,10.1,19,0.00,,FEW060,0.00,VWS V14.01,2013-06-03 21:06:00,
2013-06-03 16:12:00,70.9,26.6,29.88,NW,306,2.7,4.9,19,0.00,,FEW060,0.00,VWS V14.01,2013-06-03 21:12:00,
2013-06-03 16:17:00,70.7,26.5,29.88,West,279,2.7,5.4,19,0.00,,FEW060,0.00,VWS V14.01,2013-06-03 21:17:00,
2013-06-03 16:23:00,71.4,27.0,29.88,NW,325,0.0,4.0,19,0.00,,FEW060,0.00,VWS V14.01,2013-06-03 21:23:00,
2013-06-03 16:28:00,71.8,27.3,29.88,NNW,335,3.6,5.8,19,0.00,,FEW060,0.00,VWS V14.01,2013-06-03 21:28:00,
2013-06-03 16:34:00,71.6,27.2,29.88,WNW,297,0.0,0.0,19,0.00,,FEW060,0.00,VWS V14.01,2013-06-03 21:34:00,
2013-06-03 16:40:00,71.2,26.9,29.88,North,0,2.7,4.0,19,0.00,,FEW060,0.00,VWS V14.01,2013-06-03 21:40:00,
2013-06-03 16:45:00,71.6,27.2,29.88,NNW,346,4.0,4.0,19,0.00,,FEW060,0.00,VWS V14.01,2013-06-03 21:45:00,
2013-06-03 16:52:00,71.4,27.0,29.88,NNW,341,0.0,0.0,19,0.00,,FEW060,0.00,VWS V14.01,2013-06-03 21:52:00,
2013-06-03 16:57:00,71.2,24.2,29.88,SW,221,2.2,3.6,17,0.00,,FEW060,0.00,VWS V14.01,2013-06-03 21:57:00,
2013-06-03 17:02:00,71.1,24.1,29.88,WSW,241,0.0,0.0,17,0.00,,FEW065,0.00,VWS V14.01,2013-06-03 22:02:00,
2013-06-03 17:08:00,70.9,26.6,29.88,WSW,253,0.0,0.0,19,0.00,,FEW065,0.00,VWS V14.01,2013-06-03 22:08:00,
2013-06-03 17:13:00,70.9,26.6,29.88,NNW,344,0.0,0.0,19,0.00,,FEW065,0.00,VWS V14.01,2013-06-03 22:13:00,
2013-06-03 17:19:00,70.9,26.6,29.88,SW,230,4.0,4.0,19,0.00,,FEW065,0.00,VWS V14.01,2013-06-03 22:19:00,
2013-06-03 17:24:00,70.5,23.6,29.88,SW,217,6.3,6.3,17,0.00,,FEW065,0.00,VWS V14.01,2013-06-03 22:24:00,
2013-06-03 17:30:00,69.3,26.5,29.88,WSW,238,0.0,3.1,20,0.00,,FEW065,0.00,VWS V14.01,2013-06-03 22:30:00,
2013-06-03 17:36:00,69.1,26.4,29.88,SW,226,0.0,0.0,20,0.00,,FEW065,0.00,VWS V14.01,2013-06-03 22:36:00,
2013-06-03 17:42:00,68.9,26.2,29.88,South,187,0.0,0.0,20,0.00,,FEW065,0.00,VWS V14.01,2013-06-03 22:42:00,
2013-06-03 17:48:00,69.3,26.5,29.88,SW,223,0.0,0.0,20,0.00,,FEW065,0.00,VWS V14.01,2013-06-03 22:48:00,
2013-06-03 17:53:00,69.6,26.8,29.88,North,353,0.0,0.0,20,0.00,,FEW065,0.00,VWS V14.01,2013-06-03 22:53:00,
2013-06-03 17:59:00,70.0,25.9,29.88,ESE,108,0.0,0.0,19,0.00,,FEW065,0.00,VWS V14.01,2013-06-03 22:59:00,
2013-06-03 18:04:00,70.0,25.9,29.88,WSW,249,0.0,4.0,19,0.00,,CLR,0.00,VWS V14.01,2013-06-03 23:04:00,
2013-06-03 18:10:00,69.4,26.7,29.88,SW,221,0.0,2.7,20,0.00,,CLR,0.00,VWS V14.01,2013-06-03 23:10:00,
2013-06-03 18:16:00,69.3,26.5,29.88,SW,234,3.6,3.6,20,0.00,,CLR,0.00,VWS V14.01,2013-06-03 23:16:00,
2013-06-03 18:22:00,69.1,26.4,29.88,SW,220,3.6,4.0,20,0.00,,CLR,0.00,VWS V14.01,2013-06-03 23:22:00,
2013-06-03 18:27:00,69.1,26.4,29.88,WSW,242,0.0,0.0,20,0.00,,CLR,0.00,VWS V14.01,2013-06-03 23:27:00,
2013-06-03 18:33:00,69.6,26.8,29.85,SSW,205,0.0,0.0,20,0.00,,CLR,0.00,VWS V14.01,2013-06-03 23:33:00,
2013-06-03 18:38:00,70.3,26.2,29.85,SSW,199,0.0,3.6,19,0.00,,CLR,0.00,VWS V14.01,2013-06-03 23:38:00,
2013-06-03 18:44:00,71.1,26.8,29.85,SW,226,0.0,0.0,19,0.00,,CLR,0.00,VWS V14.01,2013-06-03 23:44:00,
2013-06-03 18:49:00,71.2,26.9,29.88,South,187,0.0,0.0,19,0.00,,CLR,0.00,VWS V14.01,2013-06-03 23:49:00,
2013-06-03 18:55:00,71.8,27.3,29.88,SSW,203,2.2,4.0,19,0.00,,CLR,0.00,VWS V14.01,2013-06-03 23:55:00,
2013-06-03 19:00:00,71.8,27.3,29.88,South,171,0.0,0.0,19,0.00,,CLR,0.00,VWS V14.01,2013-06-04 00:00:00,
2013-06-03 19:05:00,72.0,27.5,29.88,SSW,209,2.7,4.0,19,0.00,,CLR,0.00,VWS V14.01,2013-06-04 00:05:00,
2013-06-03 19:11:00,71.4,27.0,29.88,SSW,208,2.7,3.6,19,0.00,,CLR,0.00,VWS V14.01,2013-06-04 00:11:00,
2013-06-03 19:16:00,70.5,26.3,29.88,SSW,198,2.7,5.4,19,0.00,,CLR,0.00,VWS V14.01,2013-06-04 00:16:00,
2013-06-03 19:22:00,69.8,25.7,29.88,SSW,210,0.0,3.1,19,0.00,,CLR,0.00,VWS V14.01,2013-06-04 00:22:00,
2013-06-03 19:27:00,69.3,26.5,29.88,SSW,202,3.1,3.1,20,0.00,,CLR,0.00,VWS V14.01,2013-06-04 00:27:00,
2013-06-03 19:33:00,68.7,26.1,29.88,WSW,241,0.0,0.0,20,0.00,,CLR,0.00,VWS V14.01,2013-06-04 00:33:00,
2013-06-03 19:38:00,68.2,25.6,29.88,SSW,203,0.0,0.0,20,0.00,,CLR,0.00,VWS V14.01,2013-06-04 00:38:00,
2013-06-03 19:43:00,67.5,25.0,29.88,South,189,2.7,3.6,20,0.00,,CLR,0.00,VWS V14.01,2013-06-04 00:43:00,
2013-06-03 19:48:00,66.9,24.6,29.88,SSW,200,3.1,3.6,20,0.00,,CLR,0.00,VWS V14.01,2013-06-04 00:48:00,
2013-06-03 19:54:00,66.2,24.0,29.88,WSW,239,0.0,0.0,20,0.00,,CLR,0.00,VWS V14.01,2013-06-04 00:54:00,
2013-06-03 20:00:00,65.7,23.5,29.88,SSW,211,0.0,2.7,20,0.00,,CLR,0.00,VWS V14.01,2013-06-04 01:00:00,
2013-06-03 20:05:00,65.1,23.1,29.88,SSW,201,0.0,2.2,20,0.00,,CLR,0.00,VWS V14.01,2013-06-04 01:05:00,
2013-06-03 20:10:00,64.6,26.0,29.88,SSW,194,0.0,0.0,23,0.00,,CLR,0.00,VWS V14.01,2013-06-04 01:10:00,
2013-06-03 20:16:00,64.2,25.7,29.88,SW,219,0.0,2.2,23,0.00,,CLR,0.00,VWS V14.01,2013-06-04 01:16:00,
2013-06-03 20:22:00,63.7,25.2,29.88,SW,220,0.0,4.0,23,0.00,,CLR,0.00,VWS V14.01,2013-06-04 01:22:00,
2013-06-03 20:28:00,63.1,24.8,29.88,SW,214,0.0,2.7,23,0.00,,CLR,0.00,VWS V14.01,2013-06-04 01:28:00,
2013-06-03 20:33:00,62.8,24.5,29.91,SW,215,0.0,0.0,23,0.00,,CLR,0.00,VWS V14.01,2013-06-04 01:33:00,
2013-06-03 20:38:00,62.4,25.2,29.91,SW,234,0.0,2.7,24,0.00,,CLR,0.00,VWS V14.01,2013-06-04 01:38:00,
2013-06-03 20:43:00,62.1,24.9,29.91,SSW,199,0.0,4.0,24,0.00,,CLR,0.00,VWS V14.01,2013-06-04 01:43:00,
2013-06-03 20:48:00,61.9,24.7,29.91,South,189,0.0,0.0,24,0.00,,CLR,0.00,VWS V14.01,2013-06-04 01:48:00,
2013-06-03 20:54:00,61.5,24.4,29.91,SSW,203,0.0,3.1,24,0.00,,CLR,0.00,VWS V14.01,2013-06-04 01:54:00,
2013-06-03 20:59:00,61.3,24.3,29.91,SSW,211,0.0,0.0,24,0.00,,CLR,0.00,VWS V14.01,2013-06-04 01:59:00,
2013-06-03 21:05:00,61.0,24.0,29.91,SSW,210,0.0,0.0,24,0.00,,CLR,0.00,VWS V14.01,2013-06-04 02:05:00,
2013-06-03 21:10:00,60.8,23.8,29.91,SSW,204,0.0,0.0,24,0.00,,CLR,0.00,VWS V14.01,2013-06-04 02:10:00,
2013-06-03 21:15:00,60.6,24.6,29.91,SSW,205,0.0,0.0,25,0.00,,CLR,0.00,VWS V14.01,2013-06-04 02:15:00,
2013-06-03 21:20:00,60.6,24.6,29.91,SSW,204,0.0,0.0,25,0.00,,CLR,0.00,VWS V14.01,2013-06-04 02:20:00,
2013-06-03 21:25:00,60.4,24.5,29.91,SSW,203,0.0,0.0,25,0.00,,CLR,0.00,VWS V14.01,2013-06-04 02:25:00,
2013-06-03 21:31:00,60.1,24.2,29.91,SSW,203,0.0,0.0,25,0.00,,CLR,0.00,VWS V14.01,2013-06-04 02:31:00,
2013-06-03 21:36:00,60.1,24.2,29.91,South,177,0.0,0.0,25,0.00,,CLR,0.00,VWS V14.01,2013-06-04 02:36:00,
2013-06-03 21:42:00,59.7,23.9,29.91,South,177,0.0,0.0,25,0.00,,CLR,0.00,VWS V14.01,2013-06-04 02:42:00,
2013-06-03 21:47:00,59.5,23.7,29.91,South,177,0.0,0.0,25,0.00,,CLR,0.00,VWS V14.01,2013-06-04 02:47:00,
2013-06-03 21:53:00,59.4,23.6,29.91,South,177,0.0,0.0,25,0.00,,CLR,0.00,VWS V14.01,2013-06-04 02:53:00,
2013-06-03 21:58:00,59.2,23.4,29.91,South,177,0.0,0.0,25,0.00,,CLR,0.00,VWS V14.01,2013-06-04 02:58:00,
2013-06-03 22:04:00,58.8,24.0,29.93,South,177,0.0,0.0,26,0.00,,CLR,0.00,VWS V14.01,2013-06-04 03:04:00,
2013-06-03 22:09:00,58.6,23.9,29.93,South,177,0.0,0.0,26,0.00,,CLR,0.00,VWS V14.01,2013-06-04 03:09:00,
2013-06-03 22:14:00,58.5,23.7,29.93,South,177,0.0,0.0,26,0.00,,CLR,0.00,VWS V14.01,2013-06-04 03:14:00,
2013-06-03 22:19:00,58.3,23.6,29.93,South,177,0.0,0.0,26,0.00,,CLR,0.00,VWS V14.01,2013-06-04 03:19:00,
2013-06-03 22:24:00,58.1,24.3,29.93,South,177,0.0,0.0,27,0.00,,CLR,0.00,VWS V14.01,2013-06-04 03:24:00,
2013-06-03 22:29:00,57.9,25.0,29.93,South,177,0.0,0.0,28,0.00,,CLR,0.00,VWS V14.01,2013-06-04 03:29:00,
2013-06-03 22:35:00,57.7,25.7,29.93,South,177,0.0,0.0,29,0.00,,CLR,0.00,VWS V14.01,2013-06-04 03:35:00,
2013-06-03 22:40:00,57.9,26.7,29.93,South,183,0.0,0.0,30,0.00,,CLR,0.00,VWS V14.01,2013-06-04 03:40:00,
2013-06-03 22:46:00,58.1,26.9,29.93,South,182,0.0,0.0,30,0.00,,CLR,0.00,VWS V14.01,2013-06-04 03:46:00,
2013-06-03 22:52:00,58.5,26.3,29.93,South,183,0.0,0.0,29,0.00,,CLR,0.00,VWS V14.01,2013-06-04 03:52:00,
2013-06-03 22:57:00,58.5,26.3,29.93,SSW,192,0.0,0.0,29,0.00,,CLR,0.00,VWS V14.01,2013-06-04 03:57:00,
2013-06-03 23:02:00,58.6,25.6,29.93,SSW,197,0.0,0.0,28,0.00,,CLR,0.00,VWS V14.01,2013-06-04 04:02:00,
2013-06-03 23:03:00,58.6,25.6,29.93,SSW,197,0.0,0.0,28,0.00,,CLR,0.00,VWS V14.01,2013-06-04 04:03:00,
2013-06-03 23:05:00,58.8,25.8,29.93,SSW,197,0.0,0.0,28,0.00,,CLR,0.00,VWS V14.01,2013-06-04 04:05:00,
2013-06-03 23:10:00,58.8,26.6,29.93,SSW,197,0.0,0.0,29,0.00,,CLR,0.00,VWS V14.01,2013-06-04 04:10:00,
2013-06-03 23:12:00,58.8,26.6,29.93,SSW,197,0.0,0.0,29,0.00,,CLR,0.00,VWS V14.01,2013-06-04 04:12:00,
2013-06-03 23:17:00,58.6,26.5,29.93,SW,230,0.0,0.0,29,0.00,,CLR,0.00,VWS V14.01,2013-06-04 04:17:00,
2013-06-03 23:22:00,58.5,26.3,29.93,SW,218,0.0,0.0,29,0.00,,CLR,0.00,VWS V14.01,2013-06-04 04:22:00,
2013-06-03 23:25:00,58.3,26.2,29.93,SW,217,0.0,0.0,29,0.00,,CLR,0.00,VWS V14.01,2013-06-04 04:25:00,
2013-06-03 23:30:00,58.1,26.0,29.96,SSW,204,0.0,0.0,29,0.00,,CLR,0.00,VWS V14.01,2013-06-04 04:30:00,
2013-06-03 23:35:00,57.9,25.9,29.96,SSW,204,0.0,0.0,29,0.00,,CLR,0.00,VWS V14.01,2013-06-04 04:35:00,
2013-06-03 23:40:00,57.6,26.4,29.96,SSW,204,0.0,0.0,30,0.00,,CLR,0.00,VWS V14.01,2013-06-04 04:40:00,
2013-06-03 23:45:00,57.2,25.2,29.96,SW,227,2.7,3.6,29,0.00,,CLR,0.00,VWS V14.01,2013-06-04 04:45:00,
2013-06-03 23:50:00,57.2,25.2,29.96,SW,227,2.2,4.0,29,0.00,,CLR,0.00,VWS V14.01,2013-06-04 04:50:00,
2013-06-03 23:56:00,57.0,25.9,29.96,SSW,200,0.0,0.0,30,0.00,,CLR,0.00,VWS V14.01,2013-06-04 04:56:00,